Latest Coastal Weather Observations for Sydney Harbour

IDN60701

Issued at 1:21 am EST Thursday 28 July 2016 (issued every 10 minutes, with the page automatically refreshed every 10 minutes)

About coastal observations | Map of coastal stations | Coastal observations for NSW | Marine services | Other Formats
Station Details ID: 066196 Name: WEDDING CAKE WEST Lat: -33.84 Lon: 151.26 Height: 6.0 m
Data from the previous 72 hours. | See also: Recent months at Sydney Harbour
Date/Time
EST
Temp
°C
Wind Pressure Rain since
9am
mm
Weather Cloud Vis
km
Sea
Height
m
Swell
Dir  Spd
kts
Gust
kts
hPa Trend Height
m
Period
s
Dir
28/01:00am 13.0 WSW 15 22 - - - - - - - - - -
28/12:30am 13.0 WSW 15 19 - - - - - - - - - -
28/12:00am 13.0 WSW 16 21 - - - - - - - - - -
 
Date/Time
EST
Temp
°C
Wind Pressure Rain since
9am
mm
Weather Cloud Vis
km
Sea
Height
m
Swell
Dir  Spd
kts
Gust
kts
hPa Trend Height
m
Period
s
Dir
27/11:30pm 13.2 W 15 21 - - - - - - - - - -
27/11:00pm 13.4 W 17 24 - - - - - - - - - -
27/10:30pm 13.3 W 13 18 - - - - - - - - - -
27/10:00pm 13.6 WSW 9 14 - - - - - - - - - -
27/09:30pm 13.6 W 10 14 - - - - - - - - - -
27/09:00pm 14.0 W 11 15 - - - - - - - - - -
27/08:30pm 14.3 W 12 15 - - - - - - - - - -
27/08:00pm 14.6 W 14 19 - - - - - - - - - -
27/07:30pm 15.1 W 13 18 - - - - - - - - - -
27/07:00pm 15.3 W 13 17 - - - - - - - - - -
27/06:30pm 15.6 WSW 15 23 - - - - - - - - - -
27/06:00pm 16.0 WSW 13 19 - - - - - - - - - -
27/05:30pm 16.4 WSW 16 24 - - - - - - - - - -
27/05:00pm 16.8 W 17 27 - - - - - - - - - -
27/04:52pm 16.9 WSW 15 27 - - - - - - - - - -
27/04:30pm 17.0 WSW 17 22 - - - - - - - - - -
27/04:00pm 17.2 WSW 16 24 - - - - - - - - - -
27/03:32pm 17.3 WSW 16 26 - - - - - - - - - -
27/03:30pm 17.2 WSW 15 20 - - - - - - - - - -
27/03:12pm 17.4 W 15 25 - - - - - - - - - -
27/03:00pm 17.3 WSW 15 22 - - - - - - - - - -
27/02:30pm 17.2 W 20 27 - - - - - - - - - -
27/02:21pm 17.2 W 18 25 - - - - - - - - - -
27/02:00pm 17.2 WSW 20 30 - - - - - - - - - -
27/01:30pm 17.0 W 22 30 - - - - - - - - - -
27/01:02pm 17.1 W 19 29 - - - - - - - - - -
27/01:00pm 17.0 W 21 29 - - - - - - - - - -
27/12:31pm 17.0 W 18 30 - - - - - - - - - -
27/12:30pm 17.1 W 18 27 - - - - - - - - - -
27/12:00pm 17.0 WNW 21 32 - - - - - - - - - -
27/11:30am 16.8 W 19 30 - - - - - - - - - -
27/11:00am 16.6 WNW 24 35 - - - - - - - - - -
27/10:40am 16.5 WNW 17 30 - - - - - - - - - -
27/10:30am 16.2 WNW 13 22 - - - - - - - - - -
27/10:00am 15.8 WNW 10 17 - - - - - - - - - -
27/09:30am 15.3 WNW 13 22 - - - - - - - - - -
27/09:00am 14.9 WNW 12 18 - - - - - - - - - -
27/08:30am 14.3 NW 10 15 - - - - - - - - - -
27/08:00am 13.6 NNW 8 14 - - - - - - - - - -
27/07:30am 13.3 NNW 8 14 - - - - - - - - - -
27/07:00am 13.5 NW 9 14 - - - - - - - - - -
27/06:30am 13.3 WNW 10 17 - - - - - - - - - -
27/06:00am 13.2 NNW 7 11 - - - - - - - - - -
27/05:30am 13.5 NW 11 17 - - - - - - - - - -
27/05:00am 12.8 NW 8 15 - - - - - - - - - -
27/04:30am 12.2 NNW 9 14 - - - - - - - - - -
27/04:00am 12.3 NNW 9 12 - - - - - - - - - -
27/03:30am 12.3 NNW 10 13 - - - - - - - - - -
27/03:00am 12.1 NNW 9 11 - - - - - - - - - -
27/02:30am 13.1 NW 7 10 - - - - - - - - - -
27/02:00am 12.8 NNW 8 11 - - - - - - - - - -
27/01:30am 12.4 NNW 7 9 - - - - - - - - - -
27/01:00am 12.8 NNW 5 7 - - - - - - - - - -
27/12:30am 13.5 NNW 8 9 - - - - - - - - - -
27/12:00am 13.6 NNW 7 11 - - - - - - - - - -
 
Date/Time
EST
Temp
°C
Wind Pressure Rain since
9am
mm
Weather Cloud Vis
km
Sea
Height
m
Swell
Dir  Spd
kts
Gust
kts
hPa Trend Height
m
Period
s
Dir
26/11:30pm 13.5 NNW 7 9 - - - - - - - - - -
26/11:00pm 13.6 NNW 6 9 - - - - - - - - - -
26/10:30pm 13.8 NNW 8 10 - - - - - - - - - -
26/10:00pm 13.7 NNW 7 10 - - - - - - - - - -
26/09:30pm 14.0 N 7 8 - - - - - - - - - -
26/09:00pm 14.6 WNW 8 11 - - - - - - - - - -
26/08:30pm 14.9 WNW 12 17 - - - - - - - - - -
26/08:00pm 15.4 W 13 19 - - - - - - - - - -
26/07:30pm 15.3 W 13 16 - - - - - - - - - -
26/07:00pm 15.7 W 15 17 - - - - - - - - - -
26/06:30pm 15.9 W 8 12 - - - - - - - - - -
26/06:00pm 16.3 W 10 16 - - - - - - - - - -
26/05:30pm 16.8 W 13 20 - - - - - - - - - -
26/05:00pm 17.2 WNW 13 18 - - - - - - - - - -
26/04:30pm 17.8 W 15 22 - - - - - - - - - -
26/04:00pm 18.2 WNW 11 19 - - - - - - - - - -
26/03:30pm 17.7 SE 3 7 - - - - - - - - - -
26/03:00pm 17.0 ESE 11 15 - - - - - - - - - -
26/02:30pm 16.1 E 14 17 - - - - - - - - - -
26/02:00pm 16.3 E 12 14 - - - - - - - - - -
26/01:30pm 16.2 E 9 13 - - - - - - - - - -
26/01:00pm 15.8 ENE 9 11 - - - - - - - - - -
26/12:30pm 15.7 E 5 9 - - - - - - - - - -
26/12:00pm 16.5 ENE 7 10 - - - - - - - - - -
26/11:30am 16.1 S 6 7 - - - - - - - - - -
26/11:00am 15.3 WSW 7 9 - - - - - - - - - -
26/10:30am 15.1 N 8 10 - - - - - - - - - -
26/10:00am 14.6 N 6 8 - - - - - - - - - -
26/09:30am 13.9 N 7 9 - - - - - - - - - -
26/09:00am 13.2 N 7 9 - - - - - - - - - -
26/08:30am 12.7 N 8 9 - - - - - - - - - -
26/08:00am 12.4 NE 6 8 - - - - - - - - - -
26/07:30am 12.2 N 7 8 - - - - - - - - - -
26/07:00am 11.8 NNW 7 10 - - - - - - - - - -
26/06:30am 12.0 N 10 12 - - - - - - - - - -
26/06:00am 11.9 NNE 9 11 - - - - - - - - - -
26/05:30am 11.8 NNE 8 9 - - - - - - - - - -
26/05:00am 12.1 N 9 11 - - - - - - - - - -
26/04:30am 12.3 N 8 11 - - - - - - - - - -
26/04:00am 11.9 N 9 10 - - - - - - - - - -
26/03:30am 12.0 N 7 10 - - - - - - - - - -
26/03:00am 12.4 N 7 9 - - - - - - - - - -
26/02:30am 12.4 N 9 11 - - - - - - - - - -
26/02:00am 12.4 N 9 12 - - - - - - - - - -
26/01:30am 12.2 N 8 11 - - - - - - - - - -
26/01:00am 12.0 N 8 11 - - - - - - - - - -
26/12:30am 12.0 N 7 9 - - - - - - - - - -
26/12:00am 12.2 NNW 7 9 - - - - - - - - - -
 
Date/Time
EST
Temp
°C
Wind Pressure Rain since
9am
mm
Weather Cloud Vis
km
Sea
Height
m
Swell
Dir  Spd
kts
Gust
kts
hPa Trend Height
m
Period
s
Dir
25/11:30pm 12.4 NW 7 10 - - - - - - - - - -
25/11:00pm 12.5 NW 8 13 - - - - - - - - - -
25/10:30pm 12.3 NW 7 11 - - - - - - - - - -
25/10:00pm 12.4 NNW 13 17 - - - - - - - - - -
25/09:30pm 12.7 NNW 10 14 - - - - - - - - - -
25/09:00pm 12.8 N 10 14 - - - - - - - - - -
25/08:30pm 12.9 NNW 12 17 - - - - - - - - - -
25/08:00pm 13.3 N 10 13 - - - - - - - - - -
25/07:30pm 13.8 NW 7 13 - - - - - - - - - -
25/07:00pm 14.2 WNW 11 15 - - - - - - - - - -
25/06:30pm 14.7 WNW 16 22 - - - - - - - - - -
25/06:00pm 14.9 WNW 17 23 - - - - - - - - - -
25/05:30pm 15.2 W 15 22 - - - - - - - - - -
25/05:00pm 15.6 WNW 18 26 - - - - - - - - - -
25/04:30pm 16.2 WNW 12 19 - - - - - - - - - -
25/04:00pm 16.5 W 16 21 - - - - - - - - - -
25/03:30pm 16.4 W 17 24 - - - - - - - - - -
25/03:08pm 16.6 WNW 15 25 - - - - - - - - - -
25/03:00pm 16.5 WNW 17 23 - - - - - - - - - -
25/02:49pm 16.6 WNW 16 26 - - - - - - - - - -
25/02:30pm 16.4 W 15 21 - - - - - - - - - -
25/02:00pm 16.8 WNW 13 19 - - - - - - - - - -
25/01:30pm 16.3 W 16 21 - - - - - - - - - -
25/01:00pm 15.8 W 12 19 - - - - - - - - - -
25/12:30pm 15.4 W 13 17 - - - - - - - - - -
25/12:00pm 15.1 W 14 20 - - - - - - - - - -
25/11:30am 15.0 W 19 24 - - - - - - - - - -
25/11:11am 14.8 WNW 19 29 - - - - - - - - - -
25/11:00am 14.5 W 21 28 - - - - - - - - - -
25/10:30am 14.1 WNW 21 32 - - - - - - - - - -
25/10:14am 13.9 WNW 16 27 - - - - - - - - - -
25/10:00am 13.8 WNW 14 21 - - - - - - - - - -
25/09:51am 13.6 WNW 15 26 - - - - - - - - - -
25/09:30am 13.3 NW 9 14 - - - - - - - - - -
25/09:00am 12.3 NNW 9 14 - - - - - - - - - -
25/08:30am 11.7 N 8 11 - - - - - - - - - -
25/08:00am 11.6 N 7 10 - - - - - - - - - -
25/07:30am 11.1 NNW 7 10 - - - - - - - - - -
25/07:00am 10.6 NNW 8 11 - - - - - - - - - -
25/06:30am 10.7 NW 9 12 - - - - - - - - - -
25/06:00am 11.0 WNW 11 14 - - - - - - - - - -
25/05:30am 11.2 WNW 11 15 - - - - - - - - - -
25/05:00am 10.9 WNW 9 13 - - - - - - - - - -
25/04:30am 11.2 NW 12 18 - - - - - - - - - -
25/04:00am 10.8 NW 11 16 - - - - - - - - - -
25/03:30am 11.0 NNW 10 14 - - - - - - - - - -
25/03:00am 10.8 NW 9 14 - - - - - - - - - -
25/02:30am 10.9 NNW 10 14 - - - - - - - - - -
25/02:00am 10.8 NNW 8 12 - - - - - - - - - -
25/01:30am 10.6 NNW 10 14 - - - - - - - - - -

Other Formats:

Comma delimited format used in spreadsheet applications
http://www.bom.gov.au/fwo/IDN60701/IDN60701.95766.axf

JavaScript Object Notation format (JSON) in row-major order
http://www.bom.gov.au/fwo/IDN60701/IDN60701.95766.json